Ana Sayfa
METAR-TAF:

METAR-TAF

Havaalanları :

Erbil Havalimanı

Erbil, Irak

Enlem: 36-14-15N, Boylam: 43-57-47E, yükseklik: 415 m

Güncel hava durumu gözlemi

Rapor saat 14:00 UTC de 36 dakika önce yapıldı.
Rüzgar güney/güneydoğudan 14 kt
Sıcaklık 20°C
Nem 35%
Basınç 1007 hPa
Görüş mesafesi 10 km veya daha fazla
2000 ft yükseklikte az bulutlu, Kümülonimbus.
3000 ft yükseklikte parçalı bulutlu
6000 ft yükseklikte parçalı bulutlu
gök gürültülü fırtına

METAR: ORER 211400Z 15014KT 9999 TS FEW020CB SCT030 SCT060 20/04 Q1007 TEMPO SHRA

Saat: 17:36 (14:36 UTC)

Tahmin

Rapor saat 10:00 UTC de 4 saat ve 36 dakika önce yapıldı.
Ayın 21'si saat 12 UTC'den ayın 22'si saat 12 UTC'ye kadar geçerli Tahmin
Rüzgar doğu/güneydoğudan 10 kt
Görüş mesafesi: 7000 m
3000 ft yükseklikte parçalı çok bulutlu
8000 ft yükseklikte parçalı çok bulutlu
Geçici
ayın 21'si saat 14 UTC'den ayın 22'si saat 12 UTC'ye kadar

TAF: ORER 211000Z 2112/2212 12010KT 7000 BKN030 BKN080 TEMPO 2114/2212

4.000'den fazla havaalanı için hava durumu gözlemleri ve tahminleri (METAR ve TAF raporları).

Kullanılabilir istasyonlar harita üzerinde sarı ve kırmızı noktalarla gösterilir.

İstasyonun adını görmek için fareyi noktanın üzerinde gezdirin.

Sonrasında hava gözlem ve tahminlerini görmek için tıklayın.

Haritayı değiştirmek için: yaklaştırmak için siyah artı işaretli yeşil düğmeye ve uzaklaştırmak için de eksi işaretli düğmeye hızla tıklayın; bitişik haritalar için yeşil okları kullanın.


METAR-TAF: